METAR & TAF

RJTL 262221Z 09005KT 050V120 5000 BR FEW004 BKN008 BKN012 18/17 Q1006 RMK 1ST004 5ST008 7SC012 A2972
RJTL 262135Z 11006KT 3500 BR SCT004 BKN006 18/17 Q1006 RMK 4ST004 7ST006 A2971
RJTL 262002Z 11006KT 4900 BR BKN004 BKN006 17/16 Q1005 RMK 5ST004 7ST006 A2969
RJTL 261951Z 13006KT 100V160 5000 BR BKN004 BKN006 17/16 Q1005 RMK 5ST004 7ST006 A2968
RJTL 261932Z 11005KT 080V150 5000 BR SCT004 BKN006 17/16 Q1005 RMK 4ST004 7ST006 A2968
No TAF found for RJTL